TAF LFLN
METAR LFLN
LFLN 082230Z AUTO 28004KT 240V310 9999 BKN019 BKN042 OVC049 04/02 Q1006=
LFLN 082200Z AUTO 28004KT 240V300 9999 BKN021 BKN027 OVC040 03/02 Q1006 TEMPO BKN013=
LFLN 082130Z AUTO 30004KT 270V330 9999 BKN021 BKN026 BKN035 02/01 Q1006 TEMPO BKN013=
LFLN 082100Z AUTO 00000KT 9999 FEW024 BKN058 03/01 Q1005 TEMPO BKN013=
LFLN 082030Z AUTO 28005KT 250V310 9999 FEW031 OVC052 04/02 Q1005 TEMPO BKN013=
WC LFLN
WS LFLN
WV LFLN